PWSweather.com
Personal Weather Stations
Station Observations
ILOMBARD30
LodiIT 26900

LodiIT 26900

Lat: 45.2993, Lon: 9.5207

Elevation: 255

Station Type: Davis Vantege Pro2 Plus 24h

http://www.meteo-iw2gob.it

High Low Average
Temperature 35.0°F1.7°C 32.6°F0.3°C 33.6°F0.9°C
Dew Point 32.6°F0.3°C 30.3°F-0.9°C 31.3°F-0.4°C
Winds 5.8 mph 9.3 kmh Calm Calm 2.0 mph NW3.2 kmh NW
Wind Gusts 10.4 mph16.7 kmh -- 3.0 mph4.8 kmh
Humidity 91% 91% 91%
Pressure 29.64 in1003.7 mb 29.35 in993.9 mb -
Precipitation 0.78 in19.8 mm - -
Hour Temp Dew Point Humidity Winds Wind Gusts Pressure Precip Precip Rate Daily Precip Total
12:00 AM 33.5°F0.8°C 31.2°F-0.4°C 91% 2.3 mph NW3.7 kmh NW 3.5 mph5.6 kmh 29.64 in1003.7 mb - 0.00 in0.0 mm 0.00 in0.0 mm
12:05 AM 33.5°F0.8°C 31.2°F-0.4°C 91% 3.5 mph NW5.6 kmh NW 3.5 mph5.6 kmh 29.65 in1004.1 mb - 0.00 in0.0 mm 0.00 in0.0 mm
12:10 AM 33.6°F0.9°C 31.3°F-0.4°C 91% 3.5 mph NW5.6 kmh NW 3.5 mph5.6 kmh 29.65 in1004.1 mb - 0.01 in0.3 mm 0.01 in0.3 mm
12:15 AM 33.6°F0.9°C 31.3°F-0.4°C 91% 2.3 mph NNW3.7 kmh NNW 3.5 mph5.6 kmh 29.65 in1004.1 mb - 0.01 in0.3 mm 0.02 in0.5 mm
12:20 AM 33.7°F0.9°C 31.6°F-0.2°C 92% 2.3 mph NNW3.7 kmh NNW 3.5 mph5.6 kmh 29.65 in1004.1 mb - 0.00 in0.0 mm 0.02 in0.5 mm
12:25 AM 33.7°F0.9°C 31.6°F-0.2°C 92% 2.3 mph N3.7 kmh N 3.5 mph5.6 kmh 29.64 in1003.7 mb - 0.00 in0.0 mm 0.02 in0.5 mm
12:30 AM 33.8°F1.0°C 31.7°F-0.2°C 92% 2.3 mph N3.7 kmh N 2.3 mph3.7 kmh 29.65 in1004.1 mb - 0.00 in0.0 mm 0.02 in0.5 mm
12:35 AM 33.9°F1.1°C 31.8°F-0.1°C 92% 2.3 mph N3.7 kmh N 3.5 mph5.6 kmh 29.65 in1004.1 mb - 0.01 in0.3 mm 0.03 in0.8 mm
12:40 AM 33.9°F1.1°C 31.6°F-0.2°C 91% 2.3 mph N3.7 kmh N 3.5 mph5.6 kmh 29.65 in1004.1 mb - 0.01 in0.3 mm 0.03 in0.8 mm
12:45 AM 34.0°F1.1°C 31.6°F-0.2°C 91% 3.5 mph N5.6 kmh N 3.5 mph5.6 kmh 29.65 in1004.1 mb - 0.01 in0.3 mm 0.04 in1.0 mm
12:50 AM 34.1°F1.2°C 31.7°F-0.2°C 91% 2.3 mph NNW3.7 kmh NNW 3.5 mph5.6 kmh 29.65 in1004.1 mb - 0.01 in0.3 mm 0.04 in1.0 mm
12:55 AM 34.1°F1.2°C 31.7°F-0.2°C 91% 2.3 mph NNW3.7 kmh NNW 3.5 mph5.6 kmh 29.65 in1004.1 mb - 0.00 in0.0 mm 0.04 in1.0 mm
01:00 AM 34.1°F1.2°C 31.7°F-0.2°C 91% 1.2 mph NNW1.9 kmh NNW 2.3 mph3.7 kmh 29.64 in1003.7 mb - 0.00 in0.0 mm 0.04 in1.0 mm
01:05 AM 34.1°F1.2°C 31.7°F-0.2°C 91% 2.3 mph NNW3.7 kmh NNW 2.3 mph3.7 kmh 29.64 in1003.7 mb - 0.01 in0.3 mm 0.05 in1.3 mm
01:10 AM 34.2°F1.2°C 31.8°F-0.1°C 91% 1.2 mph NNW1.9 kmh NNW 2.3 mph3.7 kmh 29.64 in1003.7 mb - 0.00 in0.0 mm 0.05 in1.3 mm
01:15 AM 34.2°F1.2°C 31.8°F-0.1°C 91% 2.3 mph NNW3.7 kmh NNW 2.3 mph3.7 kmh 29.64 in1003.7 mb - 0.00 in0.0 mm 0.05 in1.3 mm
01:20 AM 34.2°F1.2°C 31.8°F-0.1°C 91% 2.3 mph NNW3.7 kmh NNW 2.3 mph3.7 kmh 29.63 in1003.4 mb - 0.00 in0.0 mm 0.05 in1.3 mm
01:25 AM 34.3°F1.3°C 31.9°F-0.1°C 91% 1.2 mph NNW1.9 kmh NNW 2.3 mph3.7 kmh 29.63 in1003.4 mb - 0.00 in0.0 mm 0.05 in1.3 mm
01:30 AM 34.3°F1.3°C 31.9°F-0.1°C 91% 1.2 mph NNW1.9 kmh NNW 2.3 mph3.7 kmh 29.62 in1003.0 mb - 0.01 in0.3 mm 0.06 in1.5 mm
01:35 AM 34.3°F1.3°C 31.9°F-0.1°C 91% 1.2 mph NNW1.9 kmh NNW 2.3 mph3.7 kmh 29.62 in1003.0 mb - 0.01 in0.3 mm 0.06 in1.5 mm
01:40 AM 34.3°F1.3°C 31.9°F-0.1°C 91% 1.2 mph NNW1.9 kmh NNW 3.5 mph5.6 kmh 29.63 in1003.4 mb - 0.00 in0.0 mm 0.06 in1.5 mm
01:45 AM 34.3°F1.3°C 31.9°F-0.1°C 91% 2.3 mph NNW3.7 kmh NNW 2.3 mph3.7 kmh 29.63 in1003.4 mb - 0.00 in0.0 mm 0.06 in1.5 mm
01:50 AM 34.4°F1.3°C 32.0°F0.0°C 91% 2.3 mph NNW3.7 kmh NNW 3.5 mph5.6 kmh 29.62 in1003.0 mb - 0.00 in0.0 mm 0.06 in1.5 mm
01:55 AM 34.4°F1.3°C 32.0°F0.0°C 91% 2.3 mph NNW3.7 kmh NNW 3.5 mph5.6 kmh 29.63 in1003.4 mb - 0.00 in0.0 mm 0.06 in1.5 mm
02:00 AM 34.4°F1.3°C 32.1°F0.1°C 91% 2.3 mph NNW3.7 kmh NNW 3.5 mph5.6 kmh 29.63 in1003.4 mb - 0.00 in0.0 mm 0.06 in1.5 mm
02:05 AM 34.5°F1.4°C 32.1°F0.1°C 91% 2.3 mph NNW3.7 kmh NNW 3.5 mph5.6 kmh 29.63 in1003.4 mb - 0.00 in0.0 mm 0.06 in1.5 mm
02:10 AM 34.6°F1.4°C 32.2°F0.1°C 91% 3.5 mph N5.6 kmh N 3.5 mph5.6 kmh 29.63 in1003.4 mb - 0.00 in0.0 mm 0.06 in1.5 mm
02:15 AM 34.7°F1.5°C 32.3°F0.2°C 91% 2.3 mph N3.7 kmh N 3.5 mph5.6 kmh 29.62 in1003.0 mb - 0.00 in0.0 mm 0.06 in1.5 mm
02:20 AM 34.8°F1.6°C 32.4°F0.2°C 91% 1.2 mph N1.9 kmh N 3.5 mph5.6 kmh 29.63 in1003.4 mb - 0.00 in0.0 mm 0.06 in1.5 mm
02:25 AM 34.8°F1.6°C 32.4°F0.2°C 91% 2.3 mph N3.7 kmh N 3.5 mph5.6 kmh 29.64 in1003.7 mb - 0.01 in0.3 mm 0.07 in1.8 mm
02:30 AM 34.9°F1.6°C 32.5°F0.3°C 91% 3.5 mph NW5.6 kmh NW 3.5 mph5.6 kmh 29.64 in1003.7 mb - 0.00 in0.0 mm 0.07 in1.8 mm
02:35 AM 35.0°F1.7°C 32.6°F0.3°C 91% 3.5 mph NW5.6 kmh NW 3.5 mph5.6 kmh 29.64 in1003.7 mb - 0.00 in0.0 mm 0.07 in1.8 mm
02:40 AM 35.0°F1.7°C 32.6°F0.3°C 91% 3.5 mph NNW5.6 kmh NNW 4.6 mph7.4 kmh 29.64 in1003.7 mb - 0.01 in0.3 mm 0.08 in2.0 mm
02:45 AM 35.0°F1.7°C 32.6°F0.3°C 91% 3.5 mph NNW5.6 kmh NNW 3.5 mph5.6 kmh 29.64 in1003.7 mb - 0.00 in0.0 mm 0.08 in2.0 mm
02:50 AM 35.0°F1.7°C 32.6°F0.3°C 91% 2.3 mph NNW3.7 kmh NNW 3.5 mph5.6 kmh 29.64 in1003.7 mb - 0.00 in0.0 mm 0.08 in2.0 mm
02:55 AM 34.9°F1.6°C 32.5°F0.3°C 91% 3.5 mph N5.6 kmh N 3.5 mph5.6 kmh 29.63 in1003.4 mb - 0.00 in0.0 mm 0.08 in2.0 mm
03:00 AM 34.9°F1.6°C 32.5°F0.3°C 91% 3.5 mph N5.6 kmh N 3.5 mph5.6 kmh 29.63 in1003.4 mb - 0.01 in0.3 mm 0.09 in2.3 mm
03:05 AM 34.8°F1.6°C 32.4°F0.2°C 91% 3.5 mph N5.6 kmh N 4.6 mph7.4 kmh 29.63 in1003.4 mb - 0.01 in0.3 mm 0.10 in2.5 mm
03:10 AM 34.7°F1.5°C 32.3°F0.2°C 91% 3.5 mph N5.6 kmh N 3.5 mph5.6 kmh 29.63 in1003.4 mb - 0.01 in0.3 mm 0.11 in2.8 mm
03:15 AM 34.6°F1.4°C 32.2°F0.1°C 91% 2.3 mph NNW3.7 kmh NNW 4.6 mph7.4 kmh 29.63 in1003.4 mb - 0.01 in0.3 mm 0.11 in2.8 mm
03:20 AM 34.5°F1.4°C 32.1°F0.1°C 91% 2.3 mph NNW3.7 kmh NNW 3.5 mph5.6 kmh 29.62 in1003.0 mb - 0.01 in0.3 mm 0.12 in3.0 mm
03:25 AM 34.5°F1.4°C 32.1°F0.1°C 91% 1.2 mph NNW1.9 kmh NNW 2.3 mph3.7 kmh 29.63 in1003.4 mb - 0.00 in0.0 mm 0.12 in3.0 mm
03:30 AM 34.4°F1.3°C 32.0°F0.0°C 91% 2.3 mph NNW3.7 kmh NNW 3.5 mph5.6 kmh 29.63 in1003.4 mb - 0.00 in0.0 mm 0.12 in3.0 mm
03:35 AM 34.4°F1.3°C 32.0°F0.0°C 91% 1.2 mph NNW1.9 kmh NNW 2.3 mph3.7 kmh 29.63 in1003.4 mb - 0.00 in0.0 mm 0.12 in3.0 mm
03:40 AM 34.4°F1.3°C 32.0°F0.0°C 91% 1.2 mph NNW1.9 kmh NNW 2.3 mph3.7 kmh 29.62 in1003.0 mb - 0.00 in0.0 mm 0.12 in3.0 mm
03:45 AM 34.4°F1.3°C 32.0°F0.0°C 91% 1.2 mph NNW1.9 kmh NNW 2.3 mph3.7 kmh 29.62 in1003.0 mb - 0.00 in0.0 mm 0.12 in3.0 mm
03:50 AM 34.4°F1.3°C 32.0°F0.0°C 91% 1.2 mph NNW1.9 kmh NNW 2.3 mph3.7 kmh 29.62 in1003.0 mb - 0.01 in0.3 mm 0.13 in3.3 mm
03:55 AM 34.4°F1.3°C 32.0°F0.0°C 91% 1.2 mph NNW1.9 kmh NNW 2.3 mph3.7 kmh 29.61 in1002.7 mb - 0.00 in0.0 mm 0.13 in3.3 mm
04:00 AM 34.4°F1.3°C 32.0°F0.0°C 91% 1.2 mph NNW1.9 kmh NNW 2.3 mph3.7 kmh 29.61 in1002.7 mb - 0.00 in0.0 mm 0.13 in3.3 mm
04:05 AM 34.4°F1.3°C 32.0°F0.0°C 91% 2.3 mph NNW3.7 kmh NNW 3.5 mph5.6 kmh 29.60 in1002.4 mb - 0.00 in0.0 mm 0.13 in3.3 mm
04:10 AM 34.4°F1.3°C 32.0°F0.0°C 91% 1.2 mph NNW1.9 kmh NNW 2.3 mph3.7 kmh 29.60 in1002.4 mb - 0.00 in0.0 mm 0.13 in3.3 mm
04:15 AM 34.4°F1.3°C 32.0°F0.0°C 91% 1.2 mph NNW1.9 kmh NNW 3.5 mph5.6 kmh 29.60 in1002.4 mb - 0.01 in0.3 mm 0.14 in3.6 mm
04:20 AM 34.4°F1.3°C 32.0°F0.0°C 91% Calm Calm -- 29.60 in1002.4 mb - 0.00 in0.0 mm 0.14 in3.6 mm
04:25 AM 34.4°F1.3°C 32.0°F0.0°C 91% Calm Calm -- 29.59 in1002.0 mb - 0.00 in0.0 mm 0.14 in3.6 mm
04:30 AM 34.4°F1.3°C 32.0°F0.0°C 91% Calm Calm -- 29.60 in1002.4 mb - 0.01 in0.3 mm 0.15 in3.8 mm
04:35 AM 34.3°F1.3°C 32.0°F0.0°C 91% Calm Calm -- 29.60 in1002.4 mb - 0.01 in0.3 mm 0.15 in3.8 mm
04:40 AM 34.3°F1.3°C 32.0°F0.0°C 91% Calm Calm -- 29.60 in1002.4 mb - 0.00 in0.0 mm 0.15 in3.8 mm
04:45 AM 34.3°F1.3°C 31.9°F-0.1°C 91% Calm Calm -- 29.60 in1002.4 mb - 0.00 in0.0 mm 0.15 in3.8 mm
04:50 AM 34.3°F1.3°C 32.0°F0.0°C 91% Calm Calm -- 29.59 in1002.0 mb - 0.00 in0.0 mm 0.15 in3.8 mm
04:55 AM 34.3°F1.3°C 32.0°F0.0°C 91% Calm Calm -- 29.59 in1002.0 mb - 0.00 in0.0 mm 0.15 in3.8 mm
05:00 AM 34.3°F1.3°C 31.9°F-0.1°C 91% Calm Calm -- 29.59 in1002.0 mb - 0.00 in0.0 mm 0.15 in3.8 mm
05:05 AM 34.3°F1.3°C 31.9°F-0.1°C 91% Calm Calm -- 29.59 in1002.0 mb - 0.01 in0.3 mm 0.16 in4.1 mm
05:10 AM 34.3°F1.3°C 31.9°F-0.1°C 91% Calm Calm -- 29.58 in1001.7 mb - 0.00 in0.0 mm 0.16 in4.1 mm
05:15 AM 34.2°F1.2°C 31.8°F-0.1°C 91% Calm Calm -- 29.58 in1001.7 mb - 0.00 in0.0 mm 0.16 in4.1 mm
05:20 AM 34.0°F1.1°C 31.7°F-0.2°C 91% Calm Calm -- 29.58 in1001.7 mb - 0.00 in0.0 mm 0.16 in4.1 mm
05:25 AM 33.9°F1.1°C 31.6°F-0.2°C 91% Calm Calm -- 29.58 in1001.7 mb - 0.00 in0.0 mm 0.16 in4.1 mm
05:30 AM 33.8°F1.0°C 31.5°F-0.3°C 91% Calm Calm -- 29.58 in1001.7 mb - 0.01 in0.3 mm 0.17 in4.3 mm
05:35 AM 33.7°F0.9°C 31.4°F-0.3°C 91% Calm Calm -- 29.58 in1001.7 mb - 0.00 in0.0 mm 0.17 in4.3 mm
05:40 AM 33.7°F0.9°C 31.3°F-0.4°C 91% Calm Calm -- 29.57 in1001.4 mb - 0.00 in0.0 mm 0.17 in4.3 mm
05:45 AM 33.5°F0.8°C 31.2°F-0.4°C 91% Calm Calm -- 29.57 in1001.4 mb - 0.00 in0.0 mm 0.17 in4.3 mm
05:50 AM 33.4°F0.8°C 31.1°F-0.5°C 91% Calm Calm -- 29.56 in1001.0 mb - 0.00 in0.0 mm 0.17 in4.3 mm
05:55 AM 33.3°F0.7°C 31.0°F-0.6°C 91% Calm Calm -- 29.56 in1001.0 mb - 0.00 in0.0 mm 0.17 in4.3 mm
06:00 AM 33.2°F0.7°C 30.9°F-0.6°C 91% Calm Calm -- 29.56 in1001.0 mb - 0.00 in0.0 mm 0.17 in4.3 mm
06:05 AM 33.2°F0.7°C 30.9°F-0.6°C 91% Calm Calm -- 29.55 in1000.7 mb - 0.01 in0.3 mm 0.18 in4.6 mm
06:10 AM 33.2°F0.7°C 30.9°F-0.6°C 91% Calm Calm -- 29.55 in1000.7 mb - 0.01 in0.3 mm 0.18 in4.6 mm
06:15 AM 33.1°F0.6°C 30.8°F-0.7°C 91% Calm Calm -- 29.55 in1000.7 mb - 0.00 in0.0 mm 0.18 in4.6 mm
06:20 AM 33.1°F0.6°C 30.8°F-0.7°C 91% Calm Calm -- 29.55 in1000.7 mb - 0.00 in0.0 mm 0.18 in4.6 mm
06:25 AM 33.0°F0.6°C 30.7°F-0.7°C 91% Calm Calm -- 29.55 in1000.7 mb - 0.00 in0.0 mm 0.18 in4.6 mm
06:30 AM 33.0°F0.6°C 30.7°F-0.7°C 91% Calm Calm -- 29.55 in1000.7 mb - 0.00 in0.0 mm 0.18 in4.6 mm
06:35 AM 33.0°F0.6°C 30.7°F-0.7°C 91% Calm Calm -- 29.55 in1000.7 mb - 0.00 in0.0 mm 0.18 in4.6 mm
06:40 AM 33.0°F0.6°C 30.7°F-0.7°C 91% Calm Calm -- 29.55 in1000.7 mb - 0.00 in0.0 mm 0.18 in4.6 mm
06:45 AM 33.0°F0.6°C 30.7°F-0.7°C 91% Calm Calm -- 29.56 in1001.0 mb - 0.00 in0.0 mm 0.18 in4.6 mm
06:50 AM 33.0°F0.6°C 30.7°F-0.7°C 91% Calm Calm -- 29.55 in1000.7 mb - 0.00 in0.0 mm 0.18 in4.6 mm
06:55 AM 33.0°F0.6°C 30.7°F-0.7°C 91% Calm Calm -- 29.56 in1001.0 mb - 0.00 in0.0 mm 0.18 in4.6 mm
07:00 AM 33.0°F0.6°C 30.7°F-0.7°C 91% Calm Calm -- 29.57 in1001.4 mb - 0.00 in0.0 mm 0.18 in4.6 mm
07:05 AM 33.0°F0.6°C 30.7°F-0.7°C 91% Calm Calm -- 29.56 in1001.0 mb - 0.00 in0.0 mm 0.18 in4.6 mm
07:10 AM 33.0°F0.6°C 30.7°F-0.7°C 91% Calm Calm -- 29.56 in1001.0 mb - 0.00 in0.0 mm 0.18 in4.6 mm
07:15 AM 33.0°F0.6°C 30.6°F-0.8°C 91% Calm Calm -- 29.56 in1001.0 mb - 0.00 in0.0 mm 0.18 in4.6 mm
07:20 AM 33.0°F0.6°C 30.7°F-0.7°C 91% Calm Calm -- 29.56 in1001.0 mb - 0.00 in0.0 mm 0.18 in4.6 mm
07:25 AM 33.0°F0.6°C 30.7°F-0.7°C 91% Calm Calm -- 29.57 in1001.4 mb - 0.00 in0.0 mm 0.18 in4.6 mm
07:30 AM 33.0°F0.6°C 30.7°F-0.7°C 91% Calm Calm -- 29.56 in1001.0 mb - 0.00 in0.0 mm 0.18 in4.6 mm
07:35 AM 32.9°F0.5°C 30.6°F-0.8°C 91% 1.2 mph NNW1.9 kmh NNW 1.2 mph1.9 kmh 29.56 in1001.0 mb - 0.00 in0.0 mm 0.18 in4.6 mm
07:40 AM 32.8°F0.4°C 30.5°F-0.8°C 91% Calm Calm 1.2 mph1.9 kmh 29.55 in1000.7 mb - 0.00 in0.0 mm 0.18 in4.6 mm
07:45 AM 32.8°F0.4°C 30.5°F-0.8°C 91% Calm Calm 1.2 mph1.9 kmh 29.55 in1000.7 mb - 0.00 in0.0 mm 0.18 in4.6 mm
07:50 AM 32.8°F0.4°C 30.5°F-0.8°C 91% Calm Calm -- 29.55 in1000.7 mb - 0.00 in0.0 mm 0.18 in4.6 mm
07:55 AM 32.8°F0.4°C 30.5°F-0.8°C 91% Calm Calm -- 29.55 in1000.7 mb - 0.00 in0.0 mm 0.18 in4.6 mm
08:00 AM 32.8°F0.4°C 30.5°F-0.8°C 91% 1.2 mph NNW1.9 kmh NNW 1.2 mph1.9 kmh 29.55 in1000.7 mb - 0.00 in0.0 mm 0.18 in4.6 mm
08:05 AM 32.7°F0.4°C 30.4°F-0.9°C 91% 1.2 mph NNW1.9 kmh NNW 2.3 mph3.7 kmh 29.55 in1000.7 mb - 0.00 in0.0 mm 0.18 in4.6 mm
08:10 AM 32.7°F0.4°C 30.4°F-0.9°C 91% 1.2 mph NNW1.9 kmh NNW 1.2 mph1.9 kmh 29.55 in1000.7 mb - 0.00 in0.0 mm 0.18 in4.6 mm
08:15 AM 32.7°F0.4°C 30.4°F-0.9°C 91% 1.2 mph NNW1.9 kmh NNW 2.3 mph3.7 kmh 29.55 in1000.7 mb - 0.00 in0.0 mm 0.18 in4.6 mm
08:20 AM 32.6°F0.3°C 30.3°F-0.9°C 91% Calm Calm -- 29.55 in1000.7 mb - 0.00 in0.0 mm 0.18 in4.6 mm
08:25 AM 32.7°F0.4°C 30.4°F-0.9°C 91% Calm Calm -- 29.55 in1000.7 mb - 0.00 in0.0 mm 0.18 in4.6 mm
08:30 AM 32.8°F0.4°C 30.5°F-0.8°C 91% Calm Calm -- 29.55 in1000.7 mb - 0.00 in0.0 mm 0.18 in4.6 mm
08:35 AM 32.8°F0.4°C 30.5°F-0.8°C 91% 1.2 mph NNW1.9 kmh NNW 2.3 mph3.7 kmh 29.55 in1000.7 mb - 0.00 in0.0 mm 0.18 in4.6 mm
08:40 AM 32.8°F0.4°C 30.5°F-0.8°C 91% 1.2 mph NNW1.9 kmh NNW 2.3 mph3.7 kmh 29.55 in1000.7 mb - 0.00 in0.0 mm 0.18 in4.6 mm
08:45 AM 32.7°F0.4°C 30.4°F-0.9°C 91% Calm Calm -- 29.55 in1000.7 mb - 0.00 in0.0 mm 0.18 in4.6 mm
08:50 AM 32.7°F0.4°C 30.4°F-0.9°C 91% 1.2 mph NNW1.9 kmh NNW 1.2 mph1.9 kmh 29.55 in1000.7 mb - 0.00 in0.0 mm 0.18 in4.6 mm
08:55 AM 32.7°F0.4°C 30.4°F-0.9°C 91% Calm Calm -- 29.55 in1000.7 mb - 0.00 in0.0 mm 0.18 in4.6 mm
09:00 AM 32.7°F0.4°C 30.4°F-0.9°C 91% Calm Calm -- 29.55 in1000.7 mb - 0.00 in0.0 mm 0.18 in4.6 mm
09:05 AM 32.8°F0.4°C 30.5°F-0.8°C 91% 1.2 mph NNW1.9 kmh NNW 1.2 mph1.9 kmh 29.55 in1000.7 mb - 0.00 in0.0 mm 0.18 in4.6 mm
09:10 AM 32.8°F0.4°C 30.5°F-0.8°C 91% Calm Calm 1.2 mph1.9 kmh 29.56 in1001.0 mb - 0.00 in0.0 mm 0.18 in4.6 mm
09:15 AM 32.8°F0.4°C 30.5°F-0.8°C 91% Calm Calm -- 29.55 in1000.7 mb - 0.00 in0.0 mm 0.18 in4.6 mm
09:20 AM 32.8°F0.4°C 30.5°F-0.8°C 91% Calm Calm -- 29.55 in1000.7 mb - 0.00 in0.0 mm 0.18 in4.6 mm
09:25 AM 32.8°F0.4°C 30.5°F-0.8°C 91% 1.2 mph NNW1.9 kmh NNW 1.2 mph1.9 kmh 29.55 in1000.7 mb - 0.00 in0.0 mm 0.18 in4.6 mm
09:30 AM 32.9°F0.5°C 30.5°F-0.8°C 91% 1.2 mph NNW1.9 kmh NNW 1.2 mph1.9 kmh 29.55 in1000.7 mb - 0.00 in0.0 mm 0.18 in4.6 mm
09:35 AM 32.9°F0.5°C 30.5°F-0.8°C 91% Calm Calm -- 29.54 in1000.3 mb - 0.00 in0.0 mm 0.18 in4.6 mm
09:40 AM 32.9°F0.5°C 30.5°F-0.8°C 91% Calm Calm -- 29.55 in1000.7 mb - 0.00 in0.0 mm 0.18 in4.6 mm
09:45 AM 32.9°F0.5°C 30.6°F-0.8°C 91% 1.2 mph NNW1.9 kmh NNW 2.3 mph3.7 kmh 29.55 in1000.7 mb - 0.00 in0.0 mm 0.18 in4.6 mm
09:50 AM 32.9°F0.5°C 30.6°F-0.8°C 91% 1.2 mph NNW1.9 kmh NNW 2.3 mph3.7 kmh 29.55 in1000.7 mb - 0.00 in0.0 mm 0.18 in4.6 mm
09:55 AM 32.9°F0.5°C 30.6°F-0.8°C 91% 2.3 mph NNW3.7 kmh NNW 2.3 mph3.7 kmh 29.54 in1000.3 mb - 0.00 in0.0 mm 0.18 in4.6 mm
10:00 AM 32.8°F0.4°C 30.5°F-0.8°C 91% 2.3 mph NNW3.7 kmh NNW 2.3 mph3.7 kmh 29.54 in1000.3 mb - 0.00 in0.0 mm 0.18 in4.6 mm
10:05 AM 32.9°F0.5°C 30.6°F-0.8°C 91% 1.2 mph NNW1.9 kmh NNW 2.3 mph3.7 kmh 29.54 in1000.3 mb - 0.00 in0.0 mm 0.18 in4.6 mm
10:10 AM 32.8°F0.4°C 30.5°F-0.8°C 91% Calm Calm 1.2 mph1.9 kmh 29.53 in1000.0 mb - 0.00 in0.0 mm 0.18 in4.6 mm
10:15 AM 32.9°F0.5°C 30.6°F-0.8°C 91% 1.2 mph NNW1.9 kmh NNW 1.2 mph1.9 kmh 29.53 in1000.0 mb - 0.00 in0.0 mm 0.18 in4.6 mm
10:20 AM 32.9°F0.5°C 30.6°F-0.8°C 91% Calm Calm -- 29.53 in1000.0 mb - 0.00 in0.0 mm 0.18 in4.6 mm
10:25 AM 32.9°F0.5°C 30.6°F-0.8°C 91% 1.2 mph NNW1.9 kmh NNW 1.2 mph1.9 kmh 29.53 in1000.0 mb - 0.00 in0.0 mm 0.18 in4.6 mm
10:30 AM 33.0°F0.6°C 30.7°F-0.7°C 91% Calm Calm -- 29.53 in1000.0 mb - 0.00 in0.0 mm 0.18 in4.6 mm
10:35 AM 33.0°F0.6°C 30.7°F-0.7°C 91% 1.2 mph NNW1.9 kmh NNW 2.3 mph3.7 kmh 29.53 in1000.0 mb - 0.00 in0.0 mm 0.18 in4.6 mm
10:40 AM 33.1°F0.6°C 30.8°F-0.7°C 91% 1.2 mph NNW1.9 kmh NNW 1.2 mph1.9 kmh 29.53 in1000.0 mb - 0.00 in0.0 mm 0.18 in4.6 mm
10:45 AM 33.2°F0.7°C 30.9°F-0.6°C 91% Calm Calm -- 29.53 in1000.0 mb - 0.00 in0.0 mm 0.18 in4.6 mm
10:50 AM 33.2°F0.7°C 30.9°F-0.6°C 91% Calm Calm -- 29.53 in1000.0 mb - 0.00 in0.0 mm 0.18 in4.6 mm
10:55 AM 33.2°F0.7°C 30.9°F-0.6°C 91% Calm Calm -- 29.53 in1000.0 mb - 0.00 in0.0 mm 0.18 in4.6 mm
11:00 AM 33.3°F0.7°C 31.0°F-0.6°C 91% Calm Calm 2.3 mph3.7 kmh 29.53 in1000.0 mb - 0.00 in0.0 mm 0.18 in4.6 mm
11:05 AM 33.3°F0.7°C 30.9°F-0.6°C 91% 1.2 mph NNW1.9 kmh NNW 1.2 mph1.9 kmh 29.54 in1000.3 mb - 0.00 in0.0 mm 0.18 in4.6 mm
11:10 AM 33.3°F0.7°C 31.0°F-0.6°C 91% Calm Calm -- 29.54 in1000.3 mb - 0.00 in0.0 mm 0.18 in4.6 mm
11:15 AM 33.4°F0.8°C 31.0°F-0.6°C 91% Calm Calm -- 29.53 in1000.0 mb - 0.01 in0.3 mm 0.19 in4.8 mm
11:20 AM 33.5°F0.8°C 31.1°F-0.5°C 91% Calm Calm -- 29.53 in1000.0 mb - 0.00 in0.0 mm 0.19 in4.8 mm
11:25 AM 33.4°F0.8°C 31.1°F-0.5°C 91% Calm Calm -- 29.52 in999.7 mb - 0.01 in0.3 mm 0.20 in5.1 mm
11:30 AM 33.4°F0.8°C 31.1°F-0.5°C 91% Calm Calm -- 29.52 in999.7 mb - 0.01 in0.3 mm 0.20 in5.1 mm
11:35 AM 33.6°F0.9°C 31.3°F-0.4°C 91% Calm Calm -- 29.52 in999.7 mb - 0.00 in0.0 mm 0.20 in5.1 mm
11:40 AM 33.7°F0.9°C 31.4°F-0.3°C 91% Calm Calm -- 29.52 in999.7 mb - 0.00 in0.0 mm 0.20 in5.1 mm
11:45 AM 33.7°F0.9°C 31.4°F-0.3°C 91% 1.2 mph NNW1.9 kmh NNW 2.3 mph3.7 kmh 29.52 in999.7 mb - 0.01 in0.3 mm 0.21 in5.3 mm
11:50 AM 33.7°F0.9°C 31.4°F-0.3°C 91% 1.2 mph NNW1.9 kmh NNW 2.3 mph3.7 kmh 29.51 in999.3 mb - 0.01 in0.3 mm 0.22 in5.6 mm
11:55 AM 33.7°F0.9°C 31.4°F-0.3°C 91% 2.3 mph NNW3.7 kmh NNW 3.5 mph5.6 kmh 29.51 in999.3 mb - 0.01 in0.3 mm 0.22 in5.6 mm
12:00 PM 33.6°F0.9°C 31.3°F-0.4°C 91% 2.3 mph NNW3.7 kmh NNW 3.5 mph5.6 kmh 29.51 in999.3 mb - 0.00 in0.0 mm 0.22 in5.6 mm
12:05 PM 33.6°F0.9°C 31.2°F-0.4°C 91% 1.2 mph NNW1.9 kmh NNW 2.3 mph3.7 kmh 29.51 in999.3 mb - 0.01 in0.3 mm 0.23 in5.8 mm
12:10 PM 33.6°F0.9°C 31.2°F-0.4°C 91% 3.5 mph NW5.6 kmh NW 4.6 mph7.4 kmh 29.50 in999.0 mb - 0.01 in0.3 mm 0.24 in6.1 mm
12:15 PM 33.6°F0.9°C 31.3°F-0.4°C 91% 2.3 mph NW3.7 kmh NW 3.5 mph5.6 kmh 29.50 in999.0 mb - 0.01 in0.3 mm 0.25 in6.4 mm
12:20 PM 33.7°F0.9°C 31.4°F-0.3°C 91% 2.3 mph NW3.7 kmh NW 3.5 mph5.6 kmh 29.50 in999.0 mb - 0.01 in0.3 mm 0.25 in6.4 mm
12:25 PM 33.7°F0.9°C 31.4°F-0.3°C 91% 2.3 mph NW3.7 kmh NW 3.5 mph5.6 kmh 29.49 in998.6 mb - 0.01 in0.3 mm 0.26 in6.6 mm
12:30 PM 33.7°F0.9°C 31.4°F-0.3°C 91% 3.5 mph N5.6 kmh N 4.6 mph7.4 kmh 29.48 in998.3 mb - 0.01 in0.3 mm 0.27 in6.9 mm
12:35 PM 33.7°F0.9°C 31.4°F-0.3°C 91% 3.5 mph NNW5.6 kmh NNW 3.5 mph5.6 kmh 29.48 in998.3 mb - 0.01 in0.3 mm 0.28 in7.1 mm
12:40 PM 33.6°F0.9°C 31.3°F-0.4°C 91% 2.3 mph NW3.7 kmh NW 3.5 mph5.6 kmh 29.48 in998.3 mb - 0.01 in0.3 mm 0.29 in7.4 mm
12:45 PM 33.6°F0.9°C 31.3°F-0.4°C 91% 3.5 mph NW5.6 kmh NW 3.5 mph5.6 kmh 29.48 in998.3 mb - 0.01 in0.3 mm 0.30 in7.6 mm
12:50 PM 33.6°F0.9°C 31.3°F-0.4°C 91% 2.3 mph NW3.7 kmh NW 3.5 mph5.6 kmh 29.47 in998.0 mb - 0.01 in0.3 mm 0.31 in7.9 mm
12:55 PM 33.6°F0.9°C 31.3°F-0.4°C 91% 2.3 mph NW3.7 kmh NW 3.5 mph5.6 kmh 29.47 in998.0 mb - 0.01 in0.3 mm 0.31 in7.9 mm
01:00 PM 33.6°F0.9°C 31.3°F-0.4°C 91% 1.2 mph NW1.9 kmh NW 3.5 mph5.6 kmh 29.48 in998.3 mb - 0.01 in0.3 mm 0.32 in8.1 mm
01:05 PM 33.7°F0.9°C 31.3°F-0.4°C 91% 3.5 mph NW5.6 kmh NW 4.6 mph7.4 kmh 29.46 in997.6 mb - 0.01 in0.3 mm 0.33 in8.4 mm
01:10 PM 33.7°F0.9°C 31.4°F-0.3°C 91% 2.3 mph NW3.7 kmh NW 3.5 mph5.6 kmh 29.46 in997.6 mb - 0.01 in0.3 mm 0.33 in8.4 mm
01:15 PM 33.7°F0.9°C 31.4°F-0.3°C 91% 2.3 mph NW3.7 kmh NW 3.5 mph5.6 kmh 29.46 in997.6 mb - 0.01 in0.3 mm 0.34 in8.6 mm
01:20 PM 33.7°F0.9°C 31.4°F-0.3°C 91% 2.3 mph NW3.7 kmh NW 3.5 mph5.6 kmh 29.46 in997.6 mb - 0.00 in0.0 mm 0.34 in8.6 mm
01:25 PM 33.8°F1.0°C 31.5°F-0.3°C 91% 2.3 mph NW3.7 kmh NW 3.5 mph5.6 kmh 29.45 in997.3 mb - 0.01 in0.3 mm 0.35 in8.9 mm
01:30 PM 33.9°F1.1°C 31.6°F-0.2°C 91% 3.5 mph NW5.6 kmh NW 3.5 mph5.6 kmh 29.45 in997.3 mb - 0.01 in0.3 mm 0.36 in9.1 mm
01:35 PM 33.9°F1.1°C 31.6°F-0.2°C 91% 3.5 mph NW5.6 kmh NW 3.5 mph5.6 kmh 29.45 in997.3 mb - 0.01 in0.3 mm 0.36 in9.1 mm
01:40 PM 33.9°F1.1°C 31.6°F-0.2°C 91% 2.3 mph NW3.7 kmh NW 2.3 mph3.7 kmh 29.45 in997.3 mb - 0.00 in0.0 mm 0.36 in9.1 mm
01:45 PM 33.9°F1.1°C 31.6°F-0.2°C 91% 1.2 mph NW1.9 kmh NW 2.3 mph3.7 kmh 29.45 in997.3 mb - 0.00 in0.0 mm 0.36 in9.1 mm
01:50 PM 33.9°F1.1°C 31.6°F-0.2°C 91% 2.3 mph NW3.7 kmh NW 3.5 mph5.6 kmh 29.44 in997.0 mb - 0.01 in0.3 mm 0.37 in9.4 mm
01:55 PM 33.9°F1.1°C 31.6°F-0.2°C 91% 2.3 mph NW3.7 kmh NW 3.5 mph5.6 kmh 29.44 in997.0 mb - 0.01 in0.3 mm 0.38 in9.7 mm
02:00 PM 33.8°F1.0°C 31.5°F-0.3°C 91% 2.3 mph NW3.7 kmh NW 3.5 mph5.6 kmh 29.44 in997.0 mb - 0.01 in0.3 mm 0.38 in9.7 mm
02:05 PM 33.8°F1.0°C 31.5°F-0.3°C 91% 1.2 mph NW1.9 kmh NW 2.3 mph3.7 kmh 29.44 in997.0 mb - 0.00 in0.0 mm 0.38 in9.7 mm
02:10 PM 33.8°F1.0°C 31.5°F-0.3°C 91% 2.3 mph NW3.7 kmh NW 3.5 mph5.6 kmh 29.44 in997.0 mb - 0.01 in0.3 mm 0.39 in9.9 mm
02:15 PM 33.8°F1.0°C 31.5°F-0.3°C 91% 2.3 mph NW3.7 kmh NW 3.5 mph5.6 kmh 29.44 in997.0 mb - 0.01 in0.3 mm 0.40 in10.2 mm
02:20 PM 33.8°F1.0°C 31.5°F-0.3°C 91% 1.2 mph NW1.9 kmh NW 2.3 mph3.7 kmh 29.43 in996.6 mb - 0.00 in0.0 mm 0.40 in10.2 mm
02:25 PM 33.8°F1.0°C 31.5°F-0.3°C 91% 1.2 mph NW1.9 kmh NW 3.5 mph5.6 kmh 29.43 in996.6 mb - 0.00 in0.0 mm 0.40 in10.2 mm
02:30 PM 33.8°F1.0°C 31.5°F-0.3°C 91% 2.3 mph WNW3.7 kmh WNW 3.5 mph5.6 kmh 29.43 in996.6 mb - 0.00 in0.0 mm 0.40 in10.2 mm
02:35 PM 33.8°F1.0°C 31.5°F-0.3°C 91% 1.2 mph WNW1.9 kmh WNW 2.3 mph3.7 kmh 29.43 in996.6 mb - 0.01 in0.3 mm 0.41 in10.4 mm
02:40 PM 33.8°F1.0°C 31.5°F-0.3°C 91% Calm Calm -- 29.43 in996.6 mb - 0.00 in0.0 mm 0.41 in10.4 mm
02:45 PM 33.9°F1.1°C 31.5°F-0.3°C 91% 1.2 mph WNW1.9 kmh WNW 1.2 mph1.9 kmh 29.43 in996.6 mb - 0.01 in0.3 mm 0.42 in10.7 mm
02:50 PM 33.9°F1.1°C 31.5°F-0.3°C 91% 1.2 mph WNW1.9 kmh WNW 2.3 mph3.7 kmh 29.42 in996.3 mb - 0.00 in0.0 mm 0.42 in10.7 mm
02:55 PM 33.9°F1.1°C 31.6°F-0.2°C 91% 2.3 mph WNW3.7 kmh WNW 3.5 mph5.6 kmh 29.42 in996.3 mb - 0.00 in0.0 mm 0.42 in10.7 mm
03:00 PM 33.9°F1.1°C 31.6°F-0.2°C 91% 1.2 mph NW1.9 kmh NW 2.3 mph3.7 kmh 29.42 in996.3 mb - 0.01 in0.3 mm 0.43 in10.9 mm
03:05 PM 33.9°F1.1°C 31.6°F-0.2°C 91% 1.2 mph NW1.9 kmh NW 2.3 mph3.7 kmh 29.42 in996.3 mb - 0.00 in0.0 mm 0.43 in10.9 mm
03:10 PM 33.9°F1.1°C 31.6°F-0.2°C 91% 1.2 mph NW1.9 kmh NW 2.3 mph3.7 kmh 29.42 in996.3 mb - 0.01 in0.3 mm 0.44 in11.2 mm
03:15 PM 33.9°F1.1°C 31.6°F-0.2°C 91% 2.3 mph NW3.7 kmh NW 3.5 mph5.6 kmh 29.42 in996.3 mb - 0.00 in0.0 mm 0.44 in11.2 mm
03:20 PM 33.9°F1.1°C 31.6°F-0.2°C 91% 2.3 mph WSW3.7 kmh WSW 3.5 mph5.6 kmh 29.43 in996.6 mb - 0.00 in0.0 mm 0.44 in11.2 mm
03:25 PM 34.0°F1.1°C 31.6°F-0.2°C 91% 1.2 mph W1.9 kmh W 1.2 mph1.9 kmh 29.42 in996.3 mb - 0.01 in0.3 mm 0.45 in11.4 mm
03:30 PM 34.0°F1.1°C 31.6°F-0.2°C 91% 2.3 mph SW3.7 kmh SW 3.5 mph5.6 kmh 29.42 in996.3 mb - 0.01 in0.3 mm 0.46 in11.7 mm
03:35 PM 33.9°F1.1°C 31.6°F-0.2°C 91% 2.3 mph SW3.7 kmh SW 3.5 mph5.6 kmh 29.42 in996.3 mb - 0.00 in0.0 mm 0.46 in11.7 mm
03:40 PM 33.8°F1.0°C 31.5°F-0.3°C 91% 2.3 mph WSW3.7 kmh WSW 3.5 mph5.6 kmh 29.42 in996.3 mb - 0.01 in0.3 mm 0.47 in11.9 mm
03:45 PM 33.8°F1.0°C 31.5°F-0.3°C 91% 2.3 mph WSW3.7 kmh WSW 3.5 mph5.6 kmh 29.42 in996.3 mb - 0.01 in0.3 mm 0.47 in11.9 mm
03:50 PM 33.8°F1.0°C 31.5°F-0.3°C 91% 2.3 mph WSW3.7 kmh WSW 3.5 mph5.6 kmh 29.42 in996.3 mb - 0.01 in0.3 mm 0.48 in12.2 mm
03:55 PM 33.7°F0.9°C 31.4°F-0.3°C 91% 1.2 mph WSW1.9 kmh WSW 1.2 mph1.9 kmh 29.42 in996.3 mb - 0.00 in0.0 mm 0.48 in12.2 mm
04:00 PM 33.7°F0.9°C 31.4°F-0.3°C 91% 1.2 mph WSW1.9 kmh WSW 2.3 mph3.7 kmh 29.42 in996.3 mb - 0.01 in0.3 mm 0.49 in12.4 mm
04:05 PM 33.7°F0.9°C 31.4°F-0.3°C 91% Calm Calm 1.2 mph1.9 kmh 29.42 in996.3 mb - 0.01 in0.3 mm 0.49 in12.4 mm
04:10 PM 33.7°F0.9°C 31.4°F-0.3°C 91% 1.2 mph WSW1.9 kmh WSW 2.3 mph3.7 kmh 29.41 in995.9 mb - 0.01 in0.3 mm 0.50 in12.7 mm
04:15 PM 33.7°F0.9°C 31.4°F-0.3°C 91% 3.5 mph WSW5.6 kmh WSW 3.5 mph5.6 kmh 29.41 in995.9 mb - 0.01 in0.3 mm 0.51 in13.0 mm
04:20 PM 33.7°F0.9°C 31.4°F-0.3°C 91% 2.3 mph WSW3.7 kmh WSW 3.5 mph5.6 kmh 29.41 in995.9 mb - 0.02 in0.5 mm 0.52 in13.2 mm
04:25 PM 33.7°F0.9°C 31.4°F-0.3°C 91% 2.3 mph WSW3.7 kmh WSW 3.5 mph5.6 kmh 29.41 in995.9 mb - 0.01 in0.3 mm 0.52 in13.2 mm
04:30 PM 33.7°F0.9°C 31.4°F-0.3°C 91% 2.3 mph WSW3.7 kmh WSW 3.5 mph5.6 kmh 29.40 in995.6 mb - 0.01 in0.3 mm 0.53 in13.5 mm
04:35 PM 33.6°F0.9°C 31.3°F-0.4°C 91% 2.3 mph WSW3.7 kmh WSW 3.5 mph5.6 kmh 29.40 in995.6 mb - 0.01 in0.3 mm 0.54 in13.7 mm
04:40 PM 33.6°F0.9°C 31.3°F-0.4°C 91% 2.3 mph WSW3.7 kmh WSW 3.5 mph5.6 kmh 29.40 in995.6 mb - 0.00 in0.0 mm 0.54 in13.7 mm
04:45 PM 33.6°F0.9°C 31.3°F-0.4°C 91% 2.3 mph WSW3.7 kmh WSW 3.5 mph5.6 kmh 29.40 in995.6 mb - 0.01 in0.3 mm 0.55 in14.0 mm
04:50 PM 33.7°F0.9°C 31.3°F-0.4°C 91% 2.3 mph WSW3.7 kmh WSW 3.5 mph5.6 kmh 29.39 in995.3 mb - 0.01 in0.3 mm 0.56 in14.2 mm
04:55 PM 33.6°F0.9°C 31.2°F-0.4°C 91% 3.5 mph WSW5.6 kmh WSW 3.5 mph5.6 kmh 29.39 in995.3 mb - 0.01 in0.3 mm 0.56 in14.2 mm
05:00 PM 33.5°F0.8°C 31.2°F-0.4°C 91% 2.3 mph W3.7 kmh W 3.5 mph5.6 kmh 29.39 in995.3 mb - 0.00 in0.0 mm 0.56 in14.2 mm
05:05 PM 33.5°F0.8°C 31.2°F-0.4°C 91% 1.2 mph W1.9 kmh W 3.5 mph5.6 kmh 29.39 in995.3 mb - 0.00 in0.0 mm 0.56 in14.2 mm
05:10 PM 33.5°F0.8°C 31.1°F-0.5°C 91% 1.2 mph WSW1.9 kmh WSW 2.3 mph3.7 kmh 29.39 in995.3 mb - 0.01 in0.3 mm 0.57 in14.5 mm
05:15 PM 33.5°F0.8°C 31.1°F-0.5°C 91% 2.3 mph WSW3.7 kmh WSW 3.5 mph5.6 kmh 29.39 in995.3 mb - 0.00 in0.0 mm 0.57 in14.5 mm
05:20 PM 33.5°F0.8°C 31.1°F-0.5°C 91% 2.3 mph WSW3.7 kmh WSW 3.5 mph5.6 kmh 29.39 in995.3 mb - 0.00 in0.0 mm 0.57 in14.5 mm
05:25 PM 33.4°F0.8°C 31.1°F-0.5°C 91% 2.3 mph WSW3.7 kmh WSW 3.5 mph5.6 kmh 29.38 in994.9 mb - 0.01 in0.3 mm 0.58 in14.7 mm
05:30 PM 33.4°F0.8°C 31.1°F-0.5°C 91% 2.3 mph WSW3.7 kmh WSW 3.5 mph5.6 kmh 29.38 in994.9 mb - 0.00 in0.0 mm 0.58 in14.7 mm
05:35 PM 33.4°F0.8°C 31.1°F-0.5°C 91% 2.3 mph WSW3.7 kmh WSW 3.5 mph5.6 kmh 29.38 in994.9 mb - 0.00 in0.0 mm 0.58 in14.7 mm
05:40 PM 33.4°F0.8°C 31.1°F-0.5°C 91% 3.5 mph WSW5.6 kmh WSW 3.5 mph5.6 kmh 29.38 in994.9 mb - 0.00 in0.0 mm 0.58 in14.7 mm
05:45 PM 33.4°F0.8°C 31.1°F-0.5°C 91% 2.3 mph WSW3.7 kmh WSW 4.6 mph7.4 kmh 29.38 in994.9 mb - 0.00 in0.0 mm 0.58 in14.7 mm
05:50 PM 33.3°F0.7°C 31.0°F-0.6°C 91% 2.3 mph WSW3.7 kmh WSW 2.3 mph3.7 kmh 29.38 in994.9 mb - 0.01 in0.3 mm 0.59 in15.0 mm
05:55 PM 33.4°F0.8°C 31.1°F-0.5°C 91% 2.3 mph WSW3.7 kmh WSW 3.5 mph5.6 kmh 29.38 in994.9 mb - 0.01 in0.3 mm 0.59 in15.0 mm
06:00 PM 33.4°F0.8°C 31.1°F-0.5°C 91% 2.3 mph WSW3.7 kmh WSW 2.3 mph3.7 kmh 29.37 in994.6 mb - 0.00 in0.0 mm 0.59 in15.0 mm
06:05 PM 33.4°F0.8°C 31.1°F-0.5°C 91% 1.2 mph WSW1.9 kmh WSW 2.3 mph3.7 kmh 29.37 in994.6 mb - 0.00 in0.0 mm 0.59 in15.0 mm
06:10 PM 33.4°F0.8°C 31.1°F-0.5°C 91% 2.3 mph WSW3.7 kmh WSW 3.5 mph5.6 kmh 29.37 in994.6 mb - 0.00 in0.0 mm 0.59 in15.0 mm
06:15 PM 33.4°F0.8°C 31.1°F-0.5°C 91% 2.3 mph WSW3.7 kmh WSW 3.5 mph5.6 kmh 29.37 in994.6 mb - 0.01 in0.3 mm 0.60 in15.2 mm
06:20 PM 33.4°F0.8°C 31.0°F-0.6°C 91% 1.2 mph WSW1.9 kmh WSW 2.3 mph3.7 kmh 29.36 in994.2 mb - 0.00 in0.0 mm 0.60 in15.2 mm
06:25 PM 33.3°F0.7°C 31.0°F-0.6°C 91% 2.3 mph WSW3.7 kmh WSW 3.5 mph5.6 kmh 29.36 in994.2 mb - 0.00 in0.0 mm 0.60 in15.2 mm
06:30 PM 33.3°F0.7°C 31.0°F-0.6°C 91% 3.5 mph WSW5.6 kmh WSW 4.6 mph7.4 kmh 29.37 in994.6 mb - 0.00 in0.0 mm 0.60 in15.2 mm
06:35 PM 33.3°F0.7°C 31.0°F-0.6°C 91% 3.5 mph WSW5.6 kmh WSW 5.8 mph9.3 kmh 29.37 in994.6 mb - 0.00 in0.0 mm 0.60 in15.2 mm
06:40 PM 33.3°F0.7°C 31.0°F-0.6°C 91% 3.5 mph SW5.6 kmh SW 5.8 mph9.3 kmh 29.37 in994.6 mb - 0.00 in0.0 mm 0.60 in15.2 mm
06:45 PM 33.3°F0.7°C 31.0°F-0.6°C 91% 2.3 mph SW3.7 kmh SW 4.6 mph7.4 kmh 29.38 in994.9 mb - 0.00 in0.0 mm 0.60 in15.2 mm
06:50 PM 33.3°F0.7°C 31.0°F-0.6°C 91% 4.6 mph SW7.4 kmh SW 4.6 mph7.4 kmh 29.38 in994.9 mb - 0.00 in0.0 mm 0.60 in15.2 mm
06:55 PM 33.3°F0.7°C 31.0°F-0.6°C 91% 2.3 mph SW3.7 kmh SW 5.8 mph9.3 kmh 29.38 in994.9 mb - 0.01 in0.3 mm 0.61 in15.5 mm
07:00 PM 33.3°F0.7°C 31.0°F-0.6°C 91% 3.5 mph SW5.6 kmh SW 4.6 mph7.4 kmh 29.38 in994.9 mb - 0.00 in0.0 mm 0.61 in15.5 mm
07:05 PM 33.3°F0.7°C 31.0°F-0.6°C 91% 1.2 mph SW1.9 kmh SW 2.3 mph3.7 kmh 29.37 in994.6 mb - 0.00 in0.0 mm 0.61 in15.5 mm
07:10 PM 33.3°F0.7°C 31.0°F-0.6°C 91% 2.3 mph SW3.7 kmh SW 3.5 mph5.6 kmh 29.37 in994.6 mb - 0.00 in0.0 mm 0.61 in15.5 mm
07:15 PM 33.3°F0.7°C 31.0°F-0.6°C 91% 1.2 mph SW1.9 kmh SW 3.5 mph5.6 kmh 29.36 in994.2 mb - 0.00 in0.0 mm 0.61 in15.5 mm
07:20 PM 33.3°F0.7°C 31.0°F-0.6°C 91% 1.2 mph SW1.9 kmh SW 3.5 mph5.6 kmh 29.36 in994.2 mb - 0.00 in0.0 mm 0.61 in15.5 mm
07:25 PM 33.3°F0.7°C 31.0°F-0.6°C 91% 4.6 mph WSW7.4 kmh WSW 5.8 mph9.3 kmh 29.36 in994.2 mb - 0.01 in0.3 mm 0.62 in15.7 mm
07:30 PM 33.3°F0.7°C 31.0°F-0.6°C 91% 2.3 mph W3.7 kmh W 3.5 mph5.6 kmh 29.36 in994.2 mb - 0.00 in0.0 mm 0.62 in15.7 mm
07:35 PM 33.3°F0.7°C 31.0°F-0.6°C 91% 3.5 mph SW5.6 kmh SW 3.5 mph5.6 kmh 29.35 in993.9 mb - 0.00 in0.0 mm 0.62 in15.7 mm
07:40 PM 33.3°F0.7°C 31.0°F-0.6°C 91% 2.3 mph W3.7 kmh W 3.5 mph5.6 kmh 29.35 in993.9 mb - 0.00 in0.0 mm 0.62 in15.7 mm
07:45 PM 33.2°F0.7°C 30.9°F-0.6°C 91% 3.5 mph WSW5.6 kmh WSW 5.8 mph9.3 kmh 29.36 in994.2 mb - 0.00 in0.0 mm 0.62 in15.7 mm
07:50 PM 33.3°F0.7°C 30.9°F-0.6°C 91% 2.3 mph WSW3.7 kmh WSW 4.6 mph7.4 kmh 29.36 in994.2 mb - 0.00 in0.0 mm 0.62 in15.7 mm
07:55 PM 33.3°F0.7°C 31.0°F-0.6°C 91% 3.5 mph WSW5.6 kmh WSW 4.6 mph7.4 kmh 29.36 in994.2 mb - 0.00 in0.0 mm 0.62 in15.7 mm
08:00 PM 33.3°F0.7°C 31.0°F-0.6°C 91% 3.5 mph WSW5.6 kmh WSW 5.8 mph9.3 kmh 29.36 in994.2 mb - 0.00 in0.0 mm 0.62 in15.7 mm
08:05 PM 33.3°F0.7°C 31.0°F-0.6°C 91% 2.3 mph WSW3.7 kmh WSW 3.5 mph5.6 kmh 29.36 in994.2 mb - 0.00 in0.0 mm 0.62 in15.7 mm
08:10 PM 33.3°F0.7°C 31.0°F-0.6°C 91% 3.5 mph WSW5.6 kmh WSW 3.5 mph5.6 kmh 29.36 in994.2 mb - 0.00 in0.0 mm 0.62 in15.7 mm
08:15 PM 33.3°F0.7°C 31.0°F-0.6°C 91% 3.5 mph WSW5.6 kmh WSW 6.9 mph11.1 kmh 29.36 in994.2 mb - 0.00 in0.0 mm 0.62 in15.7 mm
08:20 PM 33.3°F0.7°C 31.0°F-0.6°C 91% 4.6 mph WSW7.4 kmh WSW 6.9 mph11.1 kmh 29.36 in994.2 mb - 0.01 in0.3 mm 0.63 in16.0 mm
08:25 PM 33.3°F0.7°C 31.0°F-0.6°C 91% 4.6 mph WSW7.4 kmh WSW 6.9 mph11.1 kmh 29.36 in994.2 mb - 0.00 in0.0 mm 0.63 in16.0 mm
08:30 PM 33.3°F0.7°C 31.0°F-0.6°C 91% 3.5 mph WSW5.6 kmh WSW 3.5 mph5.6 kmh 29.36 in994.2 mb - 0.00 in0.0 mm 0.63 in16.0 mm
08:35 PM 33.3°F0.7°C 31.0°F-0.6°C 91% 4.6 mph WSW7.4 kmh WSW 9.2 mph14.8 kmh 29.36 in994.2 mb - 0.00 in0.0 mm 0.63 in16.0 mm
08:40 PM 33.3°F0.7°C 31.0°F-0.6°C 91% 5.8 mph WSW9.3 kmh WSW 6.9 mph11.1 kmh 29.36 in994.2 mb - 0.00 in0.0 mm 0.63 in16.0 mm
08:45 PM 33.3°F0.7°C 31.0°F-0.6°C 91% 3.5 mph W5.6 kmh W 5.8 mph9.3 kmh 29.35 in993.9 mb - 0.00 in0.0 mm 0.63 in16.0 mm
08:50 PM 33.3°F0.7°C 30.9°F-0.6°C 91% 2.3 mph WSW3.7 kmh WSW 3.5 mph5.6 kmh 29.36 in994.2 mb - 0.01 in0.3 mm 0.64 in16.3 mm
08:55 PM 33.3°F0.7°C 31.0°F-0.6°C 91% 5.8 mph W9.3 kmh W 6.9 mph11.1 kmh 29.36 in994.2 mb - 0.00 in0.0 mm 0.64 in16.3 mm
09:00 PM 33.3°F0.7°C 31.0°F-0.6°C 91% 3.5 mph WSW5.6 kmh WSW 10.4 mph16.7 kmh 29.36 in994.2 mb - 0.00 in0.0 mm 0.64 in16.3 mm
09:05 PM 33.3°F0.7°C 31.0°F-0.6°C 91% 3.5 mph W5.6 kmh W 3.5 mph5.6 kmh 29.36 in994.2 mb - 0.00 in0.0 mm 0.64 in16.3 mm
09:10 PM 33.3°F0.7°C 31.0°F-0.6°C 91% 4.6 mph WSW7.4 kmh WSW 9.2 mph14.8 kmh 29.36 in994.2 mb - 0.00 in0.0 mm 0.64 in16.3 mm
09:15 PM 33.3°F0.7°C 31.0°F-0.6°C 91% 3.5 mph WSW5.6 kmh WSW 4.6 mph7.4 kmh 29.36 in994.2 mb - 0.01 in0.3 mm 0.65 in16.5 mm
09:20 PM 33.3°F0.7°C 31.0°F-0.6°C 91% 3.5 mph W5.6 kmh W 4.6 mph7.4 kmh 29.36 in994.2 mb - 0.01 in0.3 mm 0.66 in16.8 mm
09:25 PM 33.3°F0.7°C 31.0°F-0.6°C 91% 3.5 mph WSW5.6 kmh WSW 5.8 mph9.3 kmh 29.36 in994.2 mb - 0.01 in0.3 mm 0.66 in16.8 mm
09:30 PM 33.3°F0.7°C 31.0°F-0.6°C 91% 4.6 mph WSW7.4 kmh WSW 5.8 mph9.3 kmh 29.37 in994.6 mb - 0.00 in0.0 mm 0.66 in16.8 mm
09:35 PM 33.3°F0.7°C 31.0°F-0.6°C 91% 3.5 mph WSW5.6 kmh WSW 3.5 mph5.6 kmh 29.37 in994.6 mb - 0.01 in0.3 mm 0.67 in17.0 mm
09:40 PM 33.3°F0.7°C 31.0°F-0.6°C 91% 2.3 mph WNW3.7 kmh WNW 3.5 mph5.6 kmh 29.36 in994.2 mb - 0.01 in0.3 mm 0.68 in17.3 mm
09:45 PM 33.4°F0.8°C 31.0°F-0.6°C 91% 2.3 mph WSW3.7 kmh WSW 3.5 mph5.6 kmh 29.37 in994.6 mb - 0.00 in0.0 mm 0.68 in17.3 mm
09:50 PM 33.4°F0.8°C 31.1°F-0.5°C 91% 3.5 mph SW5.6 kmh SW 3.5 mph5.6 kmh 29.37 in994.6 mb - 0.00 in0.0 mm 0.68 in17.3 mm
09:55 PM 33.4°F0.8°C 31.1°F-0.5°C 91% 3.5 mph WSW5.6 kmh WSW 3.5 mph5.6 kmh 29.37 in994.6 mb - 0.00 in0.0 mm 0.68 in17.3 mm
10:00 PM 33.4°F0.8°C 31.1°F-0.5°C 91% 3.5 mph W5.6 kmh W 5.8 mph9.3 kmh 29.37 in994.6 mb - 0.01 in0.3 mm 0.69 in17.5 mm
10:05 PM 33.4°F0.8°C 31.1°F-0.5°C 91% 3.5 mph WSW5.6 kmh WSW 4.6 mph7.4 kmh 29.37 in994.6 mb - 0.01 in0.3 mm 0.70 in17.8 mm
10:10 PM 33.4°F0.8°C 31.1°F-0.5°C 91% 2.3 mph WSW3.7 kmh WSW 3.5 mph5.6 kmh 29.37 in994.6 mb - 0.00 in0.0 mm 0.70 in17.8 mm
10:15 PM 33.4°F0.8°C 31.1°F-0.5°C 91% 2.3 mph W3.7 kmh W 3.5 mph5.6 kmh 29.36 in994.2 mb - 0.01 in0.3 mm 0.71 in18.0 mm
10:20 PM 33.5°F0.8°C 31.2°F-0.4°C 91% 2.3 mph WSW3.7 kmh WSW 3.5 mph5.6 kmh 29.36 in994.2 mb - 0.01 in0.3 mm 0.72 in18.3 mm
10:25 PM 33.5°F0.8°C 31.2°F-0.4°C 91% 2.3 mph W3.7 kmh W 3.5 mph5.6 kmh 29.37 in994.6 mb - 0.01 in0.3 mm 0.73 in18.5 mm
10:30 PM 33.5°F0.8°C 31.2°F-0.4°C 91% 4.6 mph SW7.4 kmh SW 4.6 mph7.4 kmh 29.37 in994.6 mb - 0.01 in0.3 mm 0.74 in18.8 mm
10:35 PM 33.6°F0.9°C 31.2°F-0.4°C 91% 2.3 mph WSW3.7 kmh WSW 3.5 mph5.6 kmh 29.36 in994.2 mb - 0.01 in0.3 mm 0.74 in18.8 mm
10:40 PM 33.5°F0.8°C 31.2°F-0.4°C 91% 2.3 mph W3.7 kmh W 3.5 mph5.6 kmh 29.36 in994.2 mb - 0.01 in0.3 mm 0.75 in19.1 mm
10:45 PM 33.5°F0.8°C 31.2°F-0.4°C 91% 4.6 mph NW7.4 kmh NW 4.6 mph7.4 kmh 29.35 in993.9 mb - 0.01 in0.3 mm 0.76 in19.3 mm
10:50 PM 33.6°F0.9°C 31.3°F-0.4°C 91% 1.2 mph NW1.9 kmh NW 3.5 mph5.6 kmh 29.35 in993.9 mb - 0.01 in0.3 mm 0.77 in19.6 mm
10:55 PM 33.6°F0.9°C 31.3°F-0.4°C 91% 3.5 mph WSW5.6 kmh WSW 4.6 mph7.4 kmh 29.36 in994.2 mb - 0.00 in0.0 mm 0.77 in19.6 mm
11:00 PM 33.7°F0.9°C 31.3°F-0.4°C 91% 4.6 mph WSW7.4 kmh WSW 6.9 mph11.1 kmh 29.36 in994.2 mb - 0.00 in0.0 mm 0.77 in19.6 mm
11:05 PM 33.7°F0.9°C 31.3°F-0.4°C 91% 3.5 mph W5.6 kmh W 3.5 mph5.6 kmh 29.36 in994.2 mb - 0.00 in0.0 mm 0.77 in19.6 mm
11:10 PM 33.7°F0.9°C 31.4°F-0.3°C 91% 2.3 mph WNW3.7 kmh WNW 3.5 mph5.6 kmh 29.35 in993.9 mb - 0.00 in0.0 mm 0.77 in19.6 mm
11:15 PM 33.7°F0.9°C 31.4°F-0.3°C 91% 2.3 mph SW3.7 kmh SW 3.5 mph5.6 kmh 29.36 in994.2 mb - 0.01 in0.3 mm 0.78 in19.8 mm
11:20 PM 33.7°F0.9°C 31.4°F-0.3°C 91% 2.3 mph WSW3.7 kmh WSW 4.6 mph7.4 kmh 29.37 in994.6 mb - 0.00 in0.0 mm 0.78 in19.8 mm
11:25 PM 33.7°F0.9°C 31.4°F-0.3°C 91% 3.5 mph WSW5.6 kmh WSW 3.5 mph5.6 kmh 29.37 in994.6 mb - 0.00 in0.0 mm 0.78 in19.8 mm
11:30 PM 33.7°F0.9°C 31.4°F-0.3°C 91% 3.5 mph WSW5.6 kmh WSW 5.8 mph9.3 kmh 29.37 in994.6 mb - 0.00 in0.0 mm 0.78 in19.8 mm
11:35 PM 33.6°F0.9°C 31.3°F-0.4°C 91% 4.6 mph SW7.4 kmh SW 5.8 mph9.3 kmh 29.37 in994.6 mb - 0.00 in0.0 mm 0.78 in19.8 mm
11:40 PM 33.6°F0.9°C 31.2°F-0.4°C 91% 3.5 mph WSW5.6 kmh WSW 4.6 mph7.4 kmh 29.36 in994.2 mb - 0.00 in0.0 mm 0.78 in19.8 mm
11:45 PM 33.5°F0.8°C 31.2°F-0.4°C 91% 3.5 mph W5.6 kmh W 3.5 mph5.6 kmh 29.36 in994.2 mb - 0.00 in0.0 mm 0.78 in19.8 mm
11:50 PM 33.5°F0.8°C 31.2°F-0.4°C 91% 2.3 mph WSW3.7 kmh WSW 3.5 mph5.6 kmh 29.36 in994.2 mb - 0.00 in0.0 mm 0.78 in19.8 mm
11:55 PM 33.6°F0.9°C 31.3°F-0.4°C 91% 3.5 mph WNW5.6 kmh WNW 3.5 mph5.6 kmh 29.35 in993.9 mb - 0.00 in0.0 mm 0.78 in19.8 mm